createdAt,value
2023-04-11T00:03:42.973Z,58.44
2023-04-11T00:08:48.922Z,64.26
2023-04-11T00:13:51.854Z,64.15
2023-04-11T00:18:57.324Z,63.14
2023-04-11T00:24:00.418Z,61.86
2023-04-11T00:29:03.193Z,61.82
2023-04-11T00:34:05.908Z,60.70
2023-04-11T00:39:11.577Z,57.34
2023-04-11T00:44:14.839Z,59.41
2023-04-11T00:49:17.662Z,66.01
2023-04-11T00:54:20.477Z,64.38
2023-04-11T00:59:23.521Z,64.23
2023-04-11T01:04:26.383Z,62.92
2023-04-11T01:09:30.072Z,61.99
2023-04-11T01:14:33.035Z,60.62
2023-04-11T01:19:35.820Z,59.62
2023-04-11T01:24:38.625Z,65.49
2023-04-11T01:29:41.426Z,64.45
2023-04-11T01:34:47.713Z,61.07
2023-04-11T01:39:50.615Z,60.83
2023-04-11T01:44:54.446Z,60.52
2023-04-11T01:49:57.233Z,59.26
2023-04-11T01:54:59.913Z,61.86
2023-04-11T02:00:03.903Z,65.68
2023-04-11T02:05:07.069Z,63.90
2023-04-11T02:10:09.944Z,61.64
2023-04-11T02:15:12.603Z,59.94
2023-04-11T02:20:15.586Z,59.86
2023-04-11T02:25:18.385Z,65.18
2023-04-11T02:30:21.120Z,63.77
2023-04-11T02:35:23.998Z,62.68
2023-04-11T02:40:26.734Z,61.55
2023-04-11T02:45:29.596Z,60.83
2023-04-11T02:50:32.621Z,60.72
2023-04-11T02:55:35.500Z,60.66
2023-04-11T03:00:38.248Z,61.54
2023-04-11T03:05:40.970Z,60.96
2023-04-11T03:10:43.703Z,61.17
2023-04-11T03:15:46.544Z,59.38
2023-04-11T03:20:50.864Z,64.55
2023-04-11T03:25:54.274Z,64.44
2023-04-11T03:30:57.303Z,62.69
2023-04-11T03:36:00.928Z,60.96
2023-04-11T03:41:04.042Z,59.44
2023-04-11T03:46:06.940Z,64.09
2023-04-11T03:51:09.824Z,63.88
2023-04-11T03:56:12.801Z,62.40
2023-04-11T04:01:16.536Z,62.17
2023-04-11T04:06:19.262Z,61.71
2023-04-11T04:11:22.158Z,62.33
2023-04-11T04:16:24.895Z,61.62
2023-04-11T04:21:33.049Z,61.49
2023-04-11T04:26:38.149Z,60.52
2023-04-11T04:31:41.950Z,60.22
2023-04-11T04:36:48.040Z,59.74
2023-04-11T04:42:01.793Z,64.13
2023-04-11T04:47:04.502Z,63.73
2023-04-11T04:52:07.255Z,63.39
2023-04-11T04:57:10.094Z,62.41
2023-04-11T05:02:12.961Z,61.67
2023-04-11T05:07:16.194Z,59.95
2023-04-11T05:12:20.439Z,62.42
2023-04-11T05:17:25.368Z,60.64
2023-04-11T05:22:28.491Z,60.44
2023-04-11T05:27:31.206Z,62.16
2023-04-11T05:32:34.254Z,59.26
2023-04-11T05:37:37.353Z,60.59
2023-04-11T05:42:40.366Z,61.94
2023-04-11T05:47:43.212Z,61.09
2023-04-11T05:52:46.101Z,58.00
2023-04-11T05:57:48.834Z,58.52
2023-04-11T06:02:52.990Z,58.75
2023-04-11T06:07:57.102Z,58.15
2023-04-11T06:12:59.896Z,57.10
2023-04-11T06:18:02.657Z,55.83
2023-04-11T06:23:05.725Z,55.62
2023-04-11T06:28:08.504Z,56.49
2023-04-11T06:33:11.615Z,54.34
2023-04-11T06:38:14.826Z,51.68
2023-04-11T06:43:17.695Z,50.23
2023-04-11T06:48:21.289Z,47.06
2023-04-11T06:53:24.298Z,46.09
2023-04-11T06:58:27.058Z,46.11
2023-04-11T07:03:31.127Z,45.94
2023-04-11T07:08:34.056Z,44.96
2023-04-11T07:13:36.907Z,43.53
2023-04-11T07:18:39.701Z,42.04
2023-04-11T07:23:43.209Z,43.01
2023-04-11T07:28:47.569Z,40.27
2023-04-11T07:33:51.313Z,38.78
2023-04-11T07:38:54.215Z,37.87
2023-04-11T07:43:57.177Z,37.07
2023-04-11T07:49:00.196Z,34.14
2023-04-11T07:54:03.508Z,34.38
2023-04-11T07:59:06.265Z,34.23
2023-04-11T08:04:09.188Z,35.15
2023-04-11T08:09:12.163Z,33.58
2023-04-11T08:14:15.383Z,33.33
2023-04-11T08:19:18.442Z,32.83
2023-04-11T08:24:21.140Z,33.47
2023-04-11T08:29:23.847Z,32.34
2023-04-11T08:34:26.568Z,31.48
2023-04-11T08:39:29.352Z,31.64
2023-04-11T08:44:32.116Z,29.68
2023-04-11T08:49:34.811Z,29.49
2023-04-11T08:54:37.544Z,29.25
2023-04-11T08:59:51.212Z,29.22
2023-04-11T09:04:54.785Z,29.34
2023-04-11T09:09:57.552Z,30.09
2023-04-11T09:15:18.667Z,28.66
2023-04-11T09:20:29.537Z,29.43
2023-04-11T09:25:44.051Z,30.00
2023-04-11T09:30:51.432Z,29.30
2023-04-11T09:35:56.193Z,28.23
2023-04-11T09:41:04.173Z,28.86
2023-04-11T09:46:12.116Z,30.72
2023-04-11T09:51:28.214Z,29.36
2023-04-11T09:56:37.696Z,26.61
2023-04-11T10:01:41.199Z,28.28
2023-04-11T10:07:13.008Z,29.73
2023-04-11T10:12:31.796Z,31.38
2023-04-11T10:17:34.937Z,31.29
2023-04-11T10:22:43.951Z,32.01
2023-04-11T10:28:00.971Z,34.50
2023-04-11T10:33:16.153Z,36.63
2023-04-11T10:38:37.649Z,38.19
2023-04-11T10:43:40.502Z,39.66
2023-04-11T10:49:00.843Z,40.39
2023-04-11T10:54:04.029Z,40.27
2023-04-11T10:59:07.631Z,39.33
2023-04-11T11:04:12.076Z,38.48
2023-04-11T11:09:26.468Z,37.86
2023-04-11T11:14:30.532Z,37.67
2023-04-11T11:19:33.993Z,37.27
2023-04-11T11:24:36.705Z,37.18
2023-04-11T11:29:40.119Z,37.20
2023-04-11T11:34:43.061Z,37.64
2023-04-11T11:39:46.021Z,37.92
2023-04-11T11:44:49.058Z,37.49
2023-04-11T11:49:55.675Z,36.56
2023-04-11T11:54:58.857Z,36.91
2023-04-11T12:00:05.944Z,37.72
2023-04-11T12:05:11.748Z,37.78
2023-04-11T12:10:17.113Z,38.55
2023-04-11T12:15:21.934Z,39.79
2023-04-11T12:20:26.855Z,40.29
2023-04-11T12:25:30.352Z,39.49
2023-04-11T12:30:34.124Z,37.64
2023-04-11T12:35:37.235Z,36.92
2023-04-11T12:40:40.154Z,34.85
2023-04-11T12:45:43.044Z,35.97
2023-04-11T12:50:45.776Z,36.66
2023-04-11T12:55:48.482Z,35.84
2023-04-11T13:00:51.197Z,35.69
2023-04-11T13:05:53.959Z,36.22
2023-04-11T13:10:56.661Z,34.64
2023-04-11T13:15:59.403Z,34.39
2023-04-11T13:21:02.129Z,35.95
2023-04-11T13:26:04.938Z,36.61
2023-04-11T13:31:10.499Z,37.36
2023-04-11T13:36:13.812Z,39.28
2023-04-11T13:41:16.731Z,40.12
2023-04-11T13:46:21.985Z,40.52
2023-04-11T13:51:24.713Z,39.81
2023-04-11T13:56:27.634Z,40.20
2023-04-11T14:01:30.410Z,39.60
2023-04-11T14:06:35.355Z,40.26
2023-04-11T14:11:38.064Z,40.45
2023-04-11T14:16:40.906Z,40.35
2023-04-11T14:21:43.743Z,41.41
2023-04-11T14:26:46.559Z,41.69
2023-04-11T14:31:50.014Z,41.31
2023-04-11T14:36:52.916Z,41.75
2023-04-11T14:41:56.495Z,41.81
2023-04-11T14:46:59.319Z,41.99
2023-04-11T14:52:02.314Z,41.93
2023-04-11T14:57:05.927Z,41.67
2023-04-11T15:02:09.054Z,41.06
2023-04-11T15:07:12.899Z,39.25
2023-04-11T15:12:15.596Z,38.50
2023-04-11T15:17:18.755Z,36.64
2023-04-11T15:22:22.092Z,36.97
2023-04-11T15:27:24.773Z,37.13
2023-04-11T15:32:27.582Z,36.37
2023-04-11T15:37:30.429Z,37.14
2023-04-11T15:42:35.584Z,37.22
2023-04-11T15:47:38.492Z,38.56
2023-04-11T15:52:41.358Z,40.12
2023-04-11T15:57:44.292Z,41.15
2023-04-11T16:02:47.402Z,41.20
2023-04-11T16:07:50.310Z,41.70
2023-04-11T16:12:53.279Z,41.91
2023-04-11T16:17:56.607Z,42.08
2023-04-11T16:22:59.480Z,42.35
2023-04-11T16:28:02.331Z,42.88
2023-04-11T16:33:05.208Z,43.48
2023-04-11T16:38:08.125Z,44.37
2023-04-11T16:43:11.223Z,45.53
2023-04-11T16:48:13.923Z,46.80
2023-04-11T16:53:18.672Z,47.61
2023-04-11T16:58:21.396Z,48.08
2023-04-11T17:03:24.739Z,49.00
2023-04-11T17:08:27.991Z,49.74
2023-04-11T17:13:30.774Z,50.38
2023-04-11T17:18:35.448Z,50.84
2023-04-11T17:23:42.956Z,51.11
2023-04-11T17:28:59.285Z,51.83
2023-04-11T17:34:02.188Z,52.13
2023-04-11T17:39:04.900Z,52.49
2023-04-11T17:44:07.680Z,52.86
2023-04-11T17:49:10.582Z,53.25
2023-04-11T17:54:13.379Z,53.59
2023-04-11T17:59:19.467Z,53.87
2023-04-11T18:04:22.361Z,54.21
2023-04-11T18:09:28.196Z,54.55
2023-04-11T18:14:31.148Z,54.97
2023-04-11T18:19:34.243Z,55.27
2023-04-11T18:24:37.055Z,55.68
2023-04-11T18:29:39.791Z,55.60
2023-04-11T18:34:42.509Z,55.87
2023-04-11T18:39:46.010Z,55.95
2023-04-11T18:44:48.882Z,56.11
2023-04-11T18:49:51.856Z,55.99
2023-04-11T18:54:55.524Z,56.25
2023-04-11T19:00:01.746Z,56.23
2023-04-11T19:05:13.482Z,56.66
2023-04-11T19:10:16.809Z,56.98
2023-04-11T19:15:19.713Z,56.95
2023-04-11T19:20:24.872Z,57.26
2023-04-11T19:25:27.608Z,57.17
2023-04-11T19:30:30.547Z,56.66
2023-04-11T19:35:33.303Z,56.31
2023-04-11T19:40:36.387Z,56.77
2023-04-11T19:45:39.160Z,56.74
2023-04-11T19:50:42.093Z,57.14
2023-04-11T19:55:46.021Z,56.74
2023-04-11T20:00:48.961Z,58.20
2023-04-11T20:05:51.803Z,59.43
2023-04-11T20:10:54.501Z,64.93
2023-04-11T20:15:57.185Z,62.04
2023-04-11T20:21:00.307Z,57.66
2023-04-11T20:26:03.046Z,60.68
2023-04-11T20:31:07.474Z,67.26
2023-04-11T20:36:11.272Z,66.13
2023-04-11T20:41:14.215Z,60.54
2023-04-11T20:46:18.045Z,56.79
2023-04-11T20:51:20.815Z,56.77
2023-04-11T20:56:24.154Z,58.97
2023-04-11T21:01:27.396Z,60.87
2023-04-11T21:06:31.906Z,67.34
2023-04-11T21:11:34.663Z,64.81
2023-04-11T21:16:37.338Z,61.73
2023-04-11T21:21:40.765Z,55.55
2023-04-11T21:26:43.520Z,53.47
2023-04-11T21:31:46.297Z,55.80
2023-04-11T21:36:49.944Z,55.37
2023-04-11T21:41:52.646Z,57.01
2023-04-11T21:46:55.447Z,67.36
2023-04-11T21:51:58.369Z,67.60
2023-04-11T21:57:01.767Z,62.68
2023-04-11T22:02:05.421Z,59.86
2023-04-11T22:07:08.508Z,54.61
2023-04-11T22:12:11.299Z,56.28
2023-04-11T22:17:14.609Z,58.01
2023-04-11T22:22:18.131Z,59.70
2023-04-11T22:27:20.944Z,68.73
2023-04-11T22:32:24.273Z,67.91
2023-04-11T22:37:27.327Z,62.91
2023-04-11T22:42:30.181Z,60.07
2023-04-11T22:47:34.597Z,56.90
2023-04-11T22:52:38.025Z,57.69
2023-04-11T22:57:43.650Z,61.48
2023-04-11T23:02:47.190Z,69.02
2023-04-11T23:07:50.312Z,67.79
2023-04-11T23:12:53.209Z,64.42
2023-04-11T23:17:55.906Z,62.50
2023-04-11T23:22:59.227Z,60.70
2023-04-11T23:28:02.324Z,58.13
2023-04-11T23:33:08.824Z,59.98
2023-04-11T23:38:12.021Z,67.88
2023-04-11T23:43:14.727Z,65.18
2023-04-11T23:48:17.380Z,62.49
2023-04-11T23:53:20.069Z,60.08
2023-04-11T23:58:22.832Z,56.99
